createdAt,value
2022-12-27T00:00:31.154Z,4.93
2022-12-27T00:03:38.059Z,4.96
2022-12-27T00:06:44.471Z,4.95
2022-12-27T00:09:51.496Z,4.92
2022-12-27T00:13:00.189Z,4.99
2022-12-27T00:16:09.020Z,5.01
2022-12-27T00:19:15.179Z,5.03
2022-12-27T00:22:22.615Z,5.08
2022-12-27T00:25:28.681Z,5.14
2022-12-27T00:28:39.651Z,5.15
2022-12-27T00:31:45.836Z,5.05
2022-12-27T00:34:52.790Z,5.00
2022-12-27T00:37:58.841Z,4.94
2022-12-27T00:41:07.328Z,5.06
2022-12-27T00:44:15.995Z,5.02
2022-12-27T00:47:22.845Z,5.04
2022-12-27T00:50:28.920Z,4.90
2022-12-27T00:53:37.997Z,5.13
2022-12-27T00:56:44.128Z,5.28
2022-12-27T00:59:53.960Z,5.27
2022-12-27T01:03:00.657Z,5.34
2022-12-27T01:06:08.726Z,5.27
2022-12-27T01:09:14.792Z,5.36
2022-12-27T01:12:21.624Z,5.36
2022-12-27T01:15:30.663Z,5.40
2022-12-27T01:18:37.452Z,5.44
2022-12-27T01:21:44.225Z,5.44
2022-12-27T01:24:51.468Z,5.49
2022-12-27T01:27:57.465Z,5.43
2022-12-27T01:31:13.703Z,5.45
2022-12-27T01:34:21.451Z,5.47
2022-12-27T01:37:30.313Z,5.47
2022-12-27T01:40:38.972Z,5.62
2022-12-27T01:43:43.143Z,5.56
2022-12-27T01:46:51.984Z,5.65
2022-12-27T01:50:10.216Z,5.60
2022-12-27T01:53:24.252Z,5.61
2022-12-27T01:56:35.021Z,5.67
2022-12-27T01:59:42.830Z,5.65
2022-12-27T02:02:54.242Z,5.66
2022-12-27T02:06:04.807Z,5.65
2022-12-27T02:09:23.903Z,5.58
2022-12-27T02:12:31.725Z,5.36
2022-12-27T02:15:39.285Z,5.32
2022-12-27T02:18:49.848Z,5.30
2022-12-27T02:22:53.443Z,5.29
2022-12-27T02:26:42.206Z,5.19
2022-12-27T02:30:09.136Z,5.16
2022-12-27T02:33:28.177Z,5.12
2022-12-27T02:36:42.292Z,5.12
2022-12-27T02:39:53.306Z,5.10
2022-12-27T02:43:13.558Z,5.12
2022-12-27T02:46:51.884Z,5.10
2022-12-27T02:50:11.052Z,5.07
2022-12-27T02:53:37.044Z,5.12
2022-12-27T02:57:13.648Z,5.05
2022-12-27T03:00:36.818Z,5.00
2022-12-27T03:04:12.901Z,5.09
2022-12-27T03:07:38.820Z,5.16
2022-12-27T03:11:09.084Z,5.01
2022-12-27T03:14:41.235Z,5.08
2022-12-27T03:18:05.719Z,5.13
2022-12-27T03:21:37.092Z,5.01
2022-12-27T03:24:57.276Z,5.02
2022-12-27T03:28:22.184Z,4.95
2022-12-27T03:31:48.124Z,4.92
2022-12-27T03:35:03.809Z,4.95
2022-12-27T03:38:15.403Z,5.03
2022-12-27T03:41:45.023Z,4.60
2022-12-27T03:44:53.058Z,4.69
2022-12-27T03:48:06.169Z,4.66
2022-12-27T03:51:16.172Z,4.64
2022-12-27T03:54:32.493Z,4.38
2022-12-27T03:57:40.808Z,4.17
2022-12-27T04:00:46.907Z,3.81
2022-12-27T04:03:53.797Z,3.70
2022-12-27T04:07:00.077Z,3.34
2022-12-27T04:10:22.700Z,3.21
2022-12-27T04:13:41.124Z,3.03
2022-12-27T04:17:00.429Z,2.92
2022-12-27T04:20:19.054Z,2.54
2022-12-27T04:23:38.501Z,2.59
2022-12-27T04:26:59.437Z,2.58
2022-12-27T04:30:19.037Z,2.46
2022-12-27T04:33:37.349Z,2.32
2022-12-27T04:36:44.425Z,2.39
2022-12-27T04:40:12.731Z,2.39
2022-12-27T04:43:34.552Z,2.37
2022-12-27T04:46:52.973Z,2.33
2022-12-27T04:50:12.218Z,2.30
2022-12-27T04:53:34.094Z,2.17
2022-12-27T04:56:40.943Z,2.29
2022-12-27T05:00:01.954Z,2.35
2022-12-27T05:03:15.437Z,2.19
2022-12-27T05:06:23.251Z,2.04
2022-12-27T05:09:57.558Z,2.03
2022-12-27T05:13:15.941Z,2.04
2022-12-27T05:16:25.445Z,2.08
2022-12-27T05:19:31.468Z,1.85
2022-12-27T05:22:50.403Z,1.99
2022-12-27T05:25:56.409Z,1.97
2022-12-27T05:29:04.076Z,1.94
2022-12-27T05:32:13.821Z,1.89
2022-12-27T05:35:20.745Z,1.85
2022-12-27T05:38:26.693Z,1.83
2022-12-27T05:41:34.440Z,1.69
2022-12-27T05:44:40.463Z,1.78
2022-12-27T05:47:50.008Z,1.69
2022-12-27T05:50:56.044Z,1.75
2022-12-27T05:54:03.389Z,1.65
2022-12-27T05:57:09.477Z,1.73
2022-12-27T06:00:18.036Z,1.69
2022-12-27T06:03:27.964Z,1.56
2022-12-27T06:06:35.101Z,1.69
2022-12-27T06:09:41.380Z,1.69
2022-12-27T06:12:48.196Z,1.68
2022-12-27T06:15:54.177Z,1.52
2022-12-27T06:19:03.677Z,1.62
2022-12-27T06:22:09.846Z,1.57
2022-12-27T06:25:17.051Z,1.49
2022-12-27T06:28:23.911Z,1.31
2022-12-27T06:31:31.627Z,1.28
2022-12-27T06:34:42.796Z,1.20
2022-12-27T06:37:49.654Z,1.14
2022-12-27T06:40:55.600Z,1.14
2022-12-27T06:44:02.589Z,1.11
2022-12-27T06:47:08.895Z,0.95
2022-12-27T06:50:18.547Z,1.04
2022-12-27T06:53:24.636Z,1.05
2022-12-27T06:56:31.574Z,0.95
2022-12-27T06:59:37.596Z,0.95
2022-12-27T07:02:45.819Z,0.82
2022-12-27T07:05:54.494Z,0.68
2022-12-27T07:09:03.909Z,0.67
2022-12-27T07:12:10.600Z,0.56
2022-12-27T07:15:17.723Z,0.56
2022-12-27T07:18:23.730Z,0.50
2022-12-27T07:21:33.321Z,0.54
2022-12-27T07:24:39.494Z,0.51
2022-12-27T07:27:47.351Z,0.47
2022-12-27T07:30:53.434Z,0.49
2022-12-27T07:34:03.154Z,0.50
2022-12-27T07:37:12.020Z,0.61
2022-12-27T07:40:19.122Z,0.58
2022-12-27T07:43:25.195Z,0.58
2022-12-27T07:46:33.143Z,0.63
2022-12-27T07:49:39.203Z,0.57
2022-12-27T07:52:48.975Z,0.42
2022-12-27T07:55:55.224Z,0.54
2022-12-27T07:59:05.281Z,0.59
2022-12-27T08:02:14.115Z,0.72
2022-12-27T08:05:25.961Z,0.97
2022-12-27T08:08:46.712Z,1.23
2022-12-27T08:11:53.528Z,1.29
2022-12-27T08:14:59.562Z,1.40
2022-12-27T08:18:06.518Z,1.42
2022-12-27T08:21:14.392Z,1.45
2022-12-27T08:24:24.783Z,1.77
2022-12-27T08:27:30.908Z,2.24
2022-12-27T08:30:38.436Z,2.79
2022-12-27T08:33:45.075Z,3.34
2022-12-27T08:36:55.938Z,3.80
2022-12-27T08:40:05.107Z,4.37
2022-12-27T08:43:13.258Z,4.65
2022-12-27T08:46:19.989Z,5.01
2022-12-27T08:49:27.743Z,5.40
2022-12-27T08:52:33.781Z,5.50
2022-12-27T08:55:43.336Z,5.78
2022-12-27T08:58:52.097Z,6.22
2022-12-27T09:01:59.149Z,6.72
2022-12-27T09:05:05.268Z,7.03
2022-12-27T09:08:13.791Z,6.83
2022-12-27T09:11:26.105Z,6.91
2022-12-27T09:14:36.079Z,7.37
2022-12-27T09:17:42.980Z,6.98
2022-12-27T09:20:49.933Z,6.43
2022-12-27T09:23:56.084Z,6.96
2022-12-27T09:27:05.573Z,7.48
2022-12-27T09:30:13.327Z,7.44
2022-12-27T09:33:20.231Z,7.09
2022-12-27T09:36:30.059Z,6.85
2022-12-27T09:39:36.935Z,7.83
2022-12-27T09:43:12.567Z,7.60
2022-12-27T09:46:41.624Z,8.21
2022-12-27T09:49:54.959Z,7.72
2022-12-27T09:53:11.919Z,7.71
2022-12-27T09:56:40.857Z,8.03
2022-12-27T10:00:05.815Z,8.02
2022-12-27T10:03:13.250Z,8.30
2022-12-27T10:06:47.214Z,8.45
2022-12-27T10:10:13.444Z,8.04
2022-12-27T10:13:46.428Z,8.38
2022-12-27T10:17:10.302Z,8.11
2022-12-27T10:20:34.851Z,7.99
2022-12-27T10:23:50.714Z,8.37
2022-12-27T10:26:59.043Z,7.89
2022-12-27T10:30:07.168Z,8.39
2022-12-27T10:33:27.838Z,8.19
2022-12-27T10:36:36.945Z,8.42
2022-12-27T10:39:45.744Z,8.22
2022-12-27T10:43:06.390Z,8.39
2022-12-27T10:46:23.580Z,8.30
2022-12-27T10:49:37.147Z,7.87
2022-12-27T10:52:44.151Z,7.61
2022-12-27T10:55:50.277Z,7.29
2022-12-27T10:59:08.909Z,7.51
2022-12-27T11:02:23.206Z,7.71
2022-12-27T11:05:37.369Z,8.16
2022-12-27T11:08:43.550Z,8.45
2022-12-27T11:11:50.483Z,8.40
2022-12-27T11:15:02.974Z,8.76
2022-12-27T11:18:21.212Z,8.60
2022-12-27T11:21:32.646Z,7.63
2022-12-27T11:24:40.671Z,7.55
2022-12-27T11:27:52.684Z,7.27
2022-12-27T11:31:04.332Z,6.99
2022-12-27T11:34:20.819Z,6.40
2022-12-27T11:37:31.142Z,5.33
2022-12-27T11:40:37.745Z,4.94
2022-12-27T11:43:55.156Z,4.45
2022-12-27T11:47:14.742Z,4.58
2022-12-27T11:50:53.246Z,4.59
2022-12-27T11:54:43.175Z,4.91
2022-12-27T11:58:27.341Z,5.38
2022-12-27T12:02:22.915Z,5.53
2022-12-27T12:06:06.191Z,4.93
2022-12-27T12:09:58.835Z,4.82
2022-12-27T12:13:51.580Z,4.52
2022-12-27T12:17:35.537Z,4.06
2022-12-27T12:21:22.356Z,3.92
2022-12-27T12:24:56.289Z,3.77
2022-12-27T12:28:58.235Z,3.78
2022-12-27T12:32:35.277Z,3.59
2022-12-27T12:36:06.754Z,3.38
2022-12-27T12:39:37.089Z,3.26
2022-12-27T12:43:00.563Z,3.48
2022-12-27T12:46:26.123Z,3.75
2022-12-27T12:50:17.934Z,4.07
2022-12-27T12:53:54.034Z,4.46
2022-12-27T12:57:19.834Z,4.06
2022-12-27T13:00:45.790Z,4.13
2022-12-27T13:04:34.808Z,4.17
2022-12-27T13:08:05.432Z,3.78
2022-12-27T13:11:46.649Z,3.67
2022-12-27T13:15:23.613Z,3.82
2022-12-27T13:18:51.227Z,3.77
2022-12-27T13:22:18.641Z,3.52
2022-12-27T13:25:44.527Z,3.74
2022-12-27T13:29:27.722Z,3.54
2022-12-27T13:32:59.385Z,3.48
2022-12-27T13:36:28.687Z,3.22
2022-12-27T13:40:23.451Z,2.97
2022-12-27T13:43:58.081Z,3.08
2022-12-27T13:47:43.597Z,3.00
2022-12-27T13:51:37.008Z,2.97
2022-12-27T13:55:34.494Z,2.90
2022-12-27T13:59:15.761Z,2.92
2022-12-27T14:03:00.646Z,2.84
2022-12-27T14:06:45.306Z,2.75
2022-12-27T14:10:15.527Z,2.67
2022-12-27T14:13:32.537Z,2.73
2022-12-27T14:16:59.383Z,2.57
2022-12-27T14:20:46.226Z,2.53
2022-12-27T14:24:21.475Z,2.43
2022-12-27T14:28:24.648Z,2.33
2022-12-27T14:32:11.593Z,2.14
2022-12-27T14:36:17.464Z,1.94
2022-12-27T14:40:34.931Z,1.86
2022-12-27T14:44:37.062Z,1.76
2022-12-27T14:48:38.864Z,1.66
2022-12-27T14:52:47.442Z,1.69
2022-12-27T14:56:15.518Z,1.70
2022-12-27T14:59:44.438Z,1.68
2022-12-27T15:03:27.838Z,1.67
2022-12-27T15:07:22.374Z,1.77
2022-12-27T15:11:08.476Z,1.59
2022-12-27T15:14:46.202Z,1.46
2022-12-27T15:18:28.531Z,1.46
2022-12-27T15:22:01.321Z,1.40
2022-12-27T15:25:29.723Z,1.53
2022-12-27T15:29:04.735Z,1.50
2022-12-27T15:32:35.555Z,1.49
2022-12-27T15:35:59.584Z,1.49
2022-12-27T15:39:08.578Z,1.49
2022-12-27T15:42:48.905Z,1.47
2022-12-27T15:46:23.878Z,1.32
2022-12-27T15:50:13.320Z,1.38
2022-12-27T15:53:43.824Z,1.38
2022-12-27T15:57:51.376Z,1.31
2022-12-27T16:01:31.097Z,1.15
2022-12-27T16:04:53.960Z,1.10
2022-12-27T16:08:30.690Z,1.03
2022-12-27T16:12:07.330Z,0.90
2022-12-27T16:15:54.784Z,0.87
2022-12-27T16:19:41.071Z,0.81
2022-12-27T16:22:58.589Z,0.81
2022-12-27T16:26:12.110Z,0.74
2022-12-27T16:29:20.483Z,0.78
2022-12-27T16:32:31.230Z,0.68
2022-12-27T16:35:41.151Z,0.71
2022-12-27T16:39:06.027Z,0.55
2022-12-27T16:42:13.496Z,0.64
2022-12-27T16:45:49.654Z,0.56
2022-12-27T16:49:55.079Z,0.62
2022-12-27T16:53:39.475Z,0.76
2022-12-27T16:56:48.426Z,0.70
2022-12-27T17:00:05.812Z,0.63
2022-12-27T17:03:35.668Z,0.67
2022-12-27T17:06:59.499Z,0.61
2022-12-27T17:10:50.900Z,0.65
2022-12-27T17:14:11.851Z,0.59
2022-12-27T17:17:24.544Z,0.58
2022-12-27T17:20:34.219Z,0.48
2022-12-27T17:23:45.829Z,0.44
2022-12-27T17:27:16.626Z,0.29
2022-12-27T17:30:40.463Z,0.26
2022-12-27T17:34:09.829Z,0.26
2022-12-27T17:37:28.573Z,0.30
2022-12-27T17:40:50.245Z,0.28
2022-12-27T17:44:30.815Z,0.26
2022-12-27T17:48:06.534Z,0.33
2022-12-27T17:51:21.686Z,0.32
2022-12-27T17:54:50.718Z,0.33
2022-12-27T17:57:59.611Z,0.31
2022-12-27T18:01:06.817Z,0.31
2022-12-27T18:04:27.457Z,0.23
2022-12-27T18:07:37.456Z,0.19
2022-12-27T18:10:45.622Z,0.14
2022-12-27T18:13:59.262Z,0.15
2022-12-27T18:17:07.029Z,0.17
2022-12-27T18:20:39.093Z,0.14
2022-12-27T18:23:49.405Z,0.17
2022-12-27T18:27:08.314Z,0.14
2022-12-27T18:30:16.237Z,0.14
2022-12-27T18:33:34.584Z,0.19
2022-12-27T18:36:53.675Z,0.16
2022-12-27T18:40:07.154Z,0.14
2022-12-27T18:43:18.914Z,0.05
2022-12-27T18:46:34.313Z,0.12
2022-12-27T18:49:41.548Z,0.17
2022-12-27T18:52:54.972Z,0.13
2022-12-27T18:56:07.081Z,0.06
2022-12-27T18:59:29.108Z,0.03
2022-12-27T19:02:39.471Z,0.01
2022-12-27T19:06:06.296Z,-0.05
2022-12-27T19:09:24.204Z,-0.14
2022-12-27T19:12:39.800Z,-0.17
2022-12-27T19:15:47.914Z,-0.24
2022-12-27T19:18:58.540Z,-0.46
2022-12-27T19:22:05.802Z,-0.40
2022-12-27T19:25:30.251Z,-0.51
2022-12-27T19:28:38.882Z,-0.45
2022-12-27T19:31:54.568Z,-0.38
2022-12-27T19:35:08.756Z,-0.44
2022-12-27T19:38:24.676Z,-0.44
2022-12-27T19:41:34.358Z,-0.40
2022-12-27T19:44:41.174Z,-0.50
2022-12-27T19:47:54.312Z,-0.54
2022-12-27T19:51:03.399Z,-0.59
2022-12-27T19:54:22.613Z,-0.54
2022-12-27T19:57:36.235Z,-0.64
2022-12-27T20:00:59.865Z,-0.64
2022-12-27T20:04:11.072Z,-0.59
2022-12-27T20:07:27.803Z,-0.61
2022-12-27T20:10:37.960Z,-0.66
2022-12-27T20:13:50.219Z,-0.70
2022-12-27T20:16:57.189Z,-0.77
2022-12-27T20:20:06.541Z,-0.77
2022-12-27T20:23:17.110Z,-0.89
2022-12-27T20:26:28.249Z,-0.73
2022-12-27T20:29:37.255Z,-0.77
2022-12-27T20:32:44.302Z,-0.63
2022-12-27T20:35:59.889Z,-0.57
2022-12-27T20:39:07.928Z,-0.51
2022-12-27T20:42:14.195Z,-0.59
2022-12-27T20:45:23.989Z,-0.57
2022-12-27T20:48:30.261Z,-0.56
2022-12-27T20:51:38.143Z,-0.49
2022-12-27T20:54:44.730Z,-0.50
2022-12-27T20:57:51.715Z,-0.53
2022-12-27T21:01:00.542Z,-0.54
2022-12-27T21:04:07.984Z,-0.55
2022-12-27T21:07:14.173Z,-0.48
2022-12-27T21:10:21.398Z,-0.55
2022-12-27T21:13:27.575Z,-0.47
2022-12-27T21:16:38.981Z,-0.61
2022-12-27T21:19:45.283Z,-0.43
2022-12-27T21:22:52.274Z,-0.43
2022-12-27T21:25:58.464Z,-0.42
2022-12-27T21:29:09.610Z,-0.41
2022-12-27T21:32:18.400Z,-0.50
2022-12-27T21:35:25.283Z,-0.34
2022-12-27T21:38:32.922Z,-0.34
2022-12-27T21:41:43.298Z,-0.34
2022-12-27T21:44:49.344Z,-0.40
2022-12-27T21:47:58.857Z,-0.33
2022-12-27T21:51:09.729Z,-0.27
2022-12-27T21:54:17.125Z,-0.25
2022-12-27T21:57:23.281Z,-0.39
2022-12-27T22:00:30.124Z,-0.38
2022-12-27T22:03:41.719Z,-0.44
2022-12-27T22:06:48.832Z,-0.39
2022-12-27T22:09:54.922Z,-0.43
2022-12-27T22:13:01.828Z,-0.36
2022-12-27T22:16:14.732Z,-0.33
2022-12-27T22:19:24.274Z,-0.39
2022-12-27T22:22:30.366Z,-0.30
2022-12-27T22:25:37.277Z,-0.26
2022-12-27T22:28:44.218Z,-0.36
2022-12-27T22:31:51.125Z,-0.34
2022-12-27T22:34:59.782Z,-0.41
2022-12-27T22:38:07.173Z,-0.42
2022-12-27T22:41:17.384Z,-0.44
2022-12-27T22:44:24.387Z,-0.40
2022-12-27T22:47:30.404Z,-0.51
2022-12-27T22:50:40.808Z,-0.60
2022-12-27T22:53:47.329Z,-0.63
2022-12-27T22:56:54.210Z,-0.54
2022-12-27T23:00:00.304Z,-0.58
2022-12-27T23:03:07.321Z,-0.79
2022-12-27T23:06:16.589Z,-0.80
2022-12-27T23:09:23.463Z,-0.76
2022-12-27T23:12:29.539Z,-0.77
2022-12-27T23:15:36.516Z,-0.80
2022-12-27T23:18:43.141Z,-0.69
2022-12-27T23:21:52.681Z,-0.68
2022-12-27T23:24:58.725Z,-0.60
2022-12-27T23:28:05.829Z,-0.65
2022-12-27T23:31:14.739Z,-0.62
2022-12-27T23:34:27.719Z,-0.58
2022-12-27T23:37:37.603Z,-0.58
2022-12-27T23:40:44.544Z,-0.45
2022-12-27T23:43:54.464Z,-0.43
2022-12-27T23:47:02.224Z,-0.59
2022-12-27T23:50:10.971Z,-0.52
2022-12-27T23:53:21.842Z,-0.55
2022-12-27T23:56:30.834Z,-0.52
2022-12-27T23:59:37.862Z,-0.57
